Time;durP1;ratioP1;P1;durP2;ratioP2;P2;SDS_P1;SDS_P2;PMS_P1;PMS_P2;Temp;Humidity;BMP_temperature;BMP_pressure;BME280_temperature;BME280_humidity;BME280_pressure;Samples;Min_cycle;Max_cycle;Signal;HPM_P1;HPM_P2
2023/08/20 00:00:36;;;;;;;7.53;4.07;;;17.50;99.90;;;;;;5073509;28;20040;-66
2023/08/20 00:03:13;;;;;;;10.30;4.60;;;17.50;99.90;;;;;;5073249;28;20506;-66
2023/08/20 00:05:40;;;;;;;8.32;4.15;;;17.50;99.90;;;;;;5073312;28;20478;-66
2023/08/20 00:08:06;;;;;;;6.68;3.63;;;17.40;99.90;;;;;;5073367;28;20036;-67
2023/08/20 00:10:31;;;;;;;6.40;3.72;;;17.40;99.90;;;;;;5073347;28;20043;-66
2023/08/20 00:12:58;;;;;;;7.00;4.70;;;17.40;99.90;;;;;;5055386;28;20080;-66
2023/08/20 00:15:26;;;;;;;5.45;4.15;;;17.40;99.90;;;;;;5072980;28;20046;-66
2023/08/20 00:17:53;;;;;;;10.88;4.68;;;17.40;99.90;;;;;;5073030;28;20040;-66
2023/08/20 00:20:19;;;;;;;8.65;4.50;;;17.30;99.90;;;;;;5054910;28;20048;-66
2023/08/20 00:22:45;;;;;;;9.30;5.07;;;17.30;99.90;;;;;;5073053;28;20045;-66
2023/08/20 00:25:15;;;;;;;13.55;4.90;;;17.30;99.90;;;;;;5054803;28;20048;-66
2023/08/20 00:27:42;;;;;;;11.63;5.60;;;17.30;99.90;;;;;;5072923;28;20486;-66
2023/08/20 00:30:08;;;;;;;9.07;4.63;;;17.30;99.90;;;;;;5055015;28;20287;-66
2023/08/20 00:32:35;;;;;;;10.07;5.15;;;17.30;99.90;;;;;;5038300;28;20111;-66
2023/08/20 00:35:00;;;;;;;7.13;3.60;;;17.30;99.90;;;;;;5072732;28;20047;-66
2023/08/20 00:37:26;;;;;;;7.78;4.20;;;17.20;99.90;;;;;;5054195;28;20048;-66
2023/08/20 00:39:52;;;;;;;9.45;5.10;;;17.30;99.90;;;;;;5085385;22;20040;-66
2023/08/20 00:42:17;;;;;;;11.30;6.03;;;17.20;99.90;;;;;;5092648;28;20028;-66
2023/08/20 00:44:46;;;;;;;14.25;6.70;;;17.20;99.90;;;;;;5092197;28;20451;-67
2023/08/20 00:47:13;;;;;;;12.57;6.20;;;17.20;99.90;;;;;;5093072;28;20394;-67
2023/08/20 00:49:40;;;;;;;11.32;6.20;;;17.20;99.90;;;;;;5092570;28;20058;-66
2023/08/20 00:52:08;;;;;;;9.85;5.80;;;17.20;99.90;;;;;;5092675;28;20517;-66
2023/08/20 00:54:34;;;;;;;8.02;5.10;;;17.10;99.90;;;;;;5092664;28;20036;-67
2023/08/20 00:57:01;;;;;;;10.90;6.30;;;17.10;99.90;;;;;;5092346;28;20100;-66
2023/08/20 00:59:28;;;;;;;10.80;5.55;;;17.10;99.90;;;;;;5092147;28;20115;-66
2023/08/20 01:01:54;;;;;;;6.30;4.90;;;17.10;99.90;;;;;;5092691;28;20120;-66
2023/08/20 01:04:19;;;;;;;11.35;5.15;;;17.00;99.90;;;;;;5092439;28;20115;-66
2023/08/20 01:07:07;;;;;;;6.75;4.80;;;17.00;99.90;;;;;;5092176;28;20040;-66
2023/08/20 01:10:04;;;;;;;6.55;4.22;;;17.00;99.90;;;;;;5090821;28;20428;-66
2023/08/20 01:12:33;;;;;;;9.25;5.13;;;17.00;99.90;;;;;;5092051;28;20032;-66
2023/08/20 01:14:58;;;;;;;10.50;5.10;;;16.90;99.90;;;;;;5092288;28;20039;-66
2023/08/20 01:17:24;;;;;;;9.02;5.10;;;16.90;99.90;;;;;;5092469;28;20043;-66
2023/08/20 01:19:50;;;;;;;7.53;5.03;;;16.80;99.90;;;;;;5091910;28;20455;-67
2023/08/20 01:22:55;;;;;;;7.45;4.72;;;16.80;99.90;;;;;;5091668;28;20040;-66
2023/08/20 01:25:49;;;;;;;5.55;4.40;;;16.80;99.90;;;;;;5091839;28;20040;-66
2023/08/20 01:28:35;;;;;;;8.02;4.22;;;16.70;99.90;;;;;;5092158;28;20032;-67
2023/08/20 01:31:02;;;;;;;5.63;3.65;;;16.70;99.90;;;;;;5091506;28;20038;-66
2023/08/20 01:33:29;;;;;;;5.32;4.10;;;16.60;99.90;;;;;;5090264;28;20525;-66
2023/08/20 01:35:55;;;;;;;4.65;4.10;;;16.60;99.90;;;;;;5091978;28;20374;-66
2023/08/20 01:38:21;;;;;;;5.05;3.92;;;16.60;99.90;;;;;;5091447;28;20032;-66
2023/08/20 01:40:48;;;;;;;8.70;4.45;;;16.60;99.90;;;;;;5091845;28;20071;-66
2023/08/20 01:43:13;;;;;;;6.63;4.28;;;16.60;99.90;;;;;;5091805;28;20451;-66
2023/08/20 01:45:39;;;;;;;8.82;5.30;;;16.60;99.90;;;;;;5090468;28;20048;-66
2023/08/20 01:48:05;;;;;;;8.73;5.18;;;16.60;99.90;;;;;;5091736;28;20032;-66
2023/08/20 01:50:31;;;;;;;8.20;5.13;;;16.60;99.90;;;;;;5097368;28;20046;-66
2023/08/20 01:52:57;;;;;;;9.60;5.30;;;16.60;99.90;;;;;;5097395;28;20119;-67
2023/08/20 01:55:22;;;;;;;9.07;5.97;;;16.60;99.90;;;;;;5098742;28;20092;-66
2023/08/20 01:57:48;;;;;;;5.78;3.63;;;16.60;99.90;;;;;;5098498;28;20040;-67
2023/08/20 02:00:14;;;;;;;5.10;3.20;;;16.60;99.90;;;;;;5097560;28;20044;-66
2023/08/20 02:02:40;;;;;;;7.03;5.30;;;16.60;99.90;;;;;;5105808;28;20544;-66
2023/08/20 02:05:06;;;;;;;8.57;4.82;;;16.50;99.90;;;;;;5116561;28;20032;-67
2023/08/20 02:07:31;;;;;;;9.55;6.20;;;16.50;99.90;;;;;;5118695;27;20039;-67
2023/08/20 02:09:57;;;;;;;7.82;4.88;;;16.50;99.90;;;;;;5118918;27;20028;-66
2023/08/20 02:12:22;;;;;;;7.93;3.70;;;16.50;99.90;;;;;;5114681;28;20032;-66
2023/08/20 02:14:49;;;;;;;7.05;5.00;;;16.50;99.90;;;;;;5098176;28;20039;-66
2023/08/20 02:17:14;;;;;;;10.35;7.28;;;16.50;99.90;;;;;;5098597;28;20036;-66
2023/08/20 02:19:40;;;;;;;7.68;5.35;;;16.40;99.90;;;;;;5098358;28;20047;-67
2023/08/20 02:22:06;;;;;;;7.65;5.40;;;16.40;99.90;;;;;;5098418;28;20036;-67
2023/08/20 02:24:31;;;;;;;6.63;4.65;;;16.40;99.90;;;;;;5098179;28;20040;-67
2023/08/20 02:26:57;;;;;;;6.15;4.13;;;16.40;99.90;;;;;;5098199;28;20036;-66
2023/08/20 02:29:23;;;;;;;6.13;4.32;;;16.30;99.90;;;;;;5098440;28;20451;-66
2023/08/20 02:31:48;;;;;;;5.88;4.07;;;16.30;99.90;;;;;;5098423;28;20035;-66
2023/08/20 02:34:14;;;;;;;5.70;4.22;;;16.20;99.90;;;;;;5098181;28;20085;-67
2023/08/20 02:36:39;;;;;;;4.38;3.35;;;16.20;99.90;;;;;;5098328;28;20032;-67
2023/08/20 02:39:07;;;;;;;5.55;4.00;;;16.10;99.90;;;;;;5098119;28;20051;-66
2023/08/20 02:41:34;;;;;;;5.68;4.15;;;16.10;99.90;;;;;;5097051;28;20094;-67
2023/08/20 02:44:00;;;;;;;7.28;4.57;;;16.10;99.90;;;;;;5096663;28;20048;-67
2023/08/20 02:46:25;;;;;;;6.07;4.20;;;16.10;99.90;;;;;;5098285;28;20462;-66
2023/08/20 02:48:51;;;;;;;9.25;4.85;;;16.10;99.90;;;;;;5098251;28;20505;-66
2023/08/20 02:51:17;;;;;;;8.65;4.57;;;16.10;99.90;;;;;;5098212;28;20363;-66
2023/08/20 02:53:43;;;;;;;7.53;4.65;;;16.10;99.90;;;;;;5097706;28;20122;-66
2023/08/20 02:56:08;;;;;;;6.70;4.38;;;16.10;99.90;;;;;;5098064;28;20044;-66
2023/08/20 02:58:34;;;;;;;8.85;4.68;;;16.10;99.90;;;;;;5098303;28;20039;-66
2023/08/20 03:01:00;;;;;;;11.05;5.30;;;16.10;99.90;;;;;;5095544;28;20562;-67
2023/08/20 03:03:25;;;;;;;6.75;4.50;;;16.00;99.90;;;;;;5094880;28;20040;-67
2023/08/20 03:05:51;;;;;;;7.35;5.00;;;16.00;99.90;;;;;;5094785;28;20044;-66
2023/08/20 03:08:16;;;;;;;11.55;5.35;;;16.00;99.90;;;;;;5094836;28;20085;-67
2023/08/20 03:10:42;;;;;;;7.40;4.78;;;16.00;99.90;;;;;;5094414;28;20047;-66
2023/08/20 03:13:08;;;;;;;6.38;4.45;;;16.00;99.90;;;;;;5094723;28;20032;-66
2023/08/20 03:15:33;;;;;;;6.22;4.32;;;15.90;99.90;;;;;;5094564;28;20040;-67
2023/08/20 03:17:59;;;;;;;7.68;6.47;;;15.90;99.90;;;;;;5094744;28;20047;-66
2023/08/20 03:20:24;;;;;;;7.97;5.45;;;16.00;99.90;;;;;;5094535;28;20419;-66
2023/08/20 03:22:50;;;;;;;5.90;5.00;;;16.00;99.90;;;;;;5094451;28;20036;-67
2023/08/20 03:25:16;;;;;;;8.30;5.22;;;15.90;99.90;;;;;;5094017;28;20508;-67
2023/08/20 03:27:42;;;;;;;9.68;6.13;;;15.90;99.90;;;;;;5094575;28;20134;-66
2023/08/20 03:30:07;;;;;;;6.55;4.47;;;16.00;99.90;;;;;;5094372;28;20047;-66
2023/08/20 03:32:33;;;;;;;7.55;5.25;;;16.00;99.90;;;;;;5094073;28;20044;-66
2023/08/20 03:34:59;;;;;;;10.70;6.57;;;16.00;99.90;;;;;;5094143;28;20035;-66
2023/08/20 03:37:27;;;;;;;10.07;5.38;;;16.00;99.90;;;;;;5094383;28;20587;-66
2023/08/20 03:39:53;;;;;;;9.15;5.75;;;16.00;99.90;;;;;;5093860;28;20383;-66
2023/08/20 03:42:19;;;;;;;8.60;5.82;;;16.00;99.90;;;;;;5094280;28;20077;-66
2023/08/20 03:44:44;;;;;;;7.95;5.53;;;16.00;99.90;;;;;;5093792;28;20410;-67
2023/08/20 03:47:10;;;;;;;9.32;5.45;;;16.00;99.90;;;;;;5094177;28;20089;-66
2023/08/20 03:49:36;;;;;;;9.95;6.20;;;16.00;99.90;;;;;;5093949;28;20036;-66
2023/08/20 03:52:02;;;;;;;8.50;5.60;;;16.00;99.90;;;;;;5093938;28;20451;-66
2023/08/20 03:54:29;;;;;;;10.52;6.25;;;16.00;99.90;;;;;;5093529;28;20032;-66
2023/08/20 03:56:55;;;;;;;9.35;5.80;;;16.00;99.90;;;;;;5094050;28;20532;-66
2023/08/20 03:59:21;;;;;;;11.45;6.50;;;16.00;99.90;;;;;;5093749;28;20032;-66
2023/08/20 04:01:46;;;;;;;8.68;6.15;;;16.00;99.90;;;;;;5095048;28;20510;-67
2023/08/20 04:04:12;;;;;;;8.68;6.57;;;15.90;99.90;;;;;;5095716;28;20067;-66
2023/08/20 04:06:37;;;;;;;9.48;7.45;;;15.90;99.90;;;;;;5091481;28;20036;-67
2023/08/20 04:09:03;;;;;;;7.65;6.40;;;15.90;99.90;;;;;;5092217;28;20039;-67
2023/08/20 04:11:29;;;;;;;12.02;6.57;;;15.80;99.90;;;;;;5093827;28;20072;-67
2023/08/20 04:13:55;;;;;;;7.82;5.80;;;15.80;99.90;;;;;;5093073;28;20028;-66
2023/08/20 04:16:20;;;;;;;5.95;4.25;;;15.80;99.90;;;;;;5093571;28;20036;-67
2023/08/20 04:18:46;;;;;;;7.45;4.45;;;15.80;99.90;;;;;;5093500;28;20479;-67
2023/08/20 04:21:11;;;;;;;4.72;3.80;;;15.80;99.90;;;;;;5093418;28;20042;-67
2023/08/20 04:23:37;;;;;;;6.72;4.80;;;15.80;99.90;;;;;;5092883;28;20383;-66
2023/08/20 04:26:02;;;;;;;7.07;5.43;;;15.80;99.90;;;;;;5093488;28;20072;-66
2023/08/20 04:28:28;;;;;;;6.75;5.30;;;15.70;99.90;;;;;;5093314;28;20040;-67
2023/08/20 04:30:54;;;;;;;7.05;6.00;;;15.70;99.90;;;;;;5093283;28;20132;-67
2023/08/20 04:33:20;;;;;;;8.10;4.82;;;15.70;99.90;;;;;;5091373;28;20128;-67
2023/08/20 04:35:50;;;;;;;7.05;4.60;;;15.70;99.90;;;;;;5092671;28;20115;-66
2023/08/20 04:38:16;;;;;;;4.75;3.80;;;15.70;99.90;;;;;;5092871;28;20046;-67
2023/08/20 04:40:41;;;;;;;6.68;3.85;;;15.60;99.90;;;;;;5091858;28;20118;-67
2023/08/20 04:43:07;;;;;;;7.05;4.00;;;15.60;99.90;;;;;;5092578;28;20036;-66
2023/08/20 04:45:32;;;;;;;8.35;4.72;;;15.60;99.90;;;;;;5092410;28;20520;-66
2023/08/20 04:47:59;;;;;;;6.55;4.72;;;15.60;99.90;;;;;;5092986;28;20486;-67
2023/08/20 04:50:24;;;;;;;9.30;5.75;;;15.60;99.90;;;;;;5090670;28;20050;-67
2023/08/20 04:52:50;;;;;;;8.88;6.25;;;15.60;99.90;;;;;;5091634;28;20028;-66
2023/08/20 04:55:16;;;;;;;8.82;6.03;;;15.60;99.90;;;;;;5092755;28;20115;-67
2023/08/20 04:57:41;;;;;;;11.27;7.28;;;15.60;99.90;;;;;;5092854;28;20393;-66
2023/08/20 05:00:09;;;;;;;9.32;6.40;;;15.70;99.90;;;;;;5092656;28;20085;-67
2023/08/20 05:02:35;;;;;;;8.85;6.35;;;15.70;99.90;;;;;;5091269;28;20044;-67
2023/08/20 05:05:02;;;;;;;9.88;6.32;;;15.70;99.90;;;;;;5092298;28;20425;-67
2023/08/20 05:07:27;;;;;;;7.93;5.85;;;15.80;99.90;;;;;;5091778;28;20045;-66
2023/08/20 05:09:53;;;;;;;11.65;7.25;;;15.80;99.90;;;;;;5092387;28;20043;-66
2023/08/20 05:12:18;;;;;;;4.85;3.58;;;15.80;99.90;;;;;;5092108;28;20089;-66
2023/08/20 05:14:44;;;;;;;6.10;4.78;;;15.90;99.90;;;;;;5092220;28;20117;-66
2023/08/20 05:17:10;;;;;;;7.65;5.55;;;15.90;99.90;;;;;;5091762;28;20040;-66
2023/08/20 05:19:35;;;;;;;8.30;5.60;;;16.00;99.90;;;;;;5092340;28;20039;-66
2023/08/20 05:22:01;;;;;;;11.82;7.70;;;16.00;99.90;;;;;;5092156;28;20036;-66
2023/08/20 05:24:27;;;;;;;9.55;7.22;;;16.00;99.90;;;;;;5090988;28;20032;-66
2023/08/20 05:27:09;;;;;;;11.15;7.78;;;16.10;99.90;;;;;;5092020;28;20044;-66
2023/08/20 05:29:35;;;;;;;12.20;8.25;;;16.10;99.90;;;;;;5092174;28;20115;-66
2023/08/20 05:32:00;;;;;;;12.82;8.85;;;16.10;99.90;;;;;;5091753;28;20036;-66
2023/08/20 05:34:26;;;;;;;11.55;9.10;;;16.20;99.90;;;;;;5091633;28;20081;-66
2023/08/20 05:36:52;;;;;;;14.70;9.70;;;16.20;99.90;;;;;;5091815;28;20048;-66
2023/08/20 05:39:17;;;;;;;14.10;10.13;;;16.30;99.90;;;;;;5092082;28;20521;-66
2023/08/20 05:41:43;;;;;;;15.68;10.35;;;16.30;99.90;;;;;;5092094;28;20070;-66
2023/08/20 05:44:09;;;;;;;16.83;11.70;;;16.40;99.90;;;;;;5091764;28;20035;-66
2023/08/20 05:46:35;;;;;;;17.58;11.93;;;16.40;99.90;;;;;;5091627;28;20442;-66
2023/08/20 05:49:01;;;;;;;15.95;10.93;;;16.50;99.90;;;;;;5092169;28;20074;-67
2023/08/20 05:51:26;;;;;;;16.35;10.60;;;16.60;99.90;;;;;;5091785;28;20036;-66
2023/08/20 05:53:52;;;;;;;17.30;10.07;;;16.70;99.90;;;;;;5090421;28;20040;-66
2023/08/20 05:56:18;;;;;;;16.45;9.43;;;16.70;99.90;;;;;;5091801;28;20104;-66
2023/08/20 05:58:43;;;;;;;14.63;9.35;;;16.80;99.90;;;;;;5091939;28;20051;-66
2023/08/20 06:01:09;;;;;;;19.50;10.40;;;16.80;99.90;;;;;;5091889;28;20028;-66
2023/08/20 06:03:35;;;;;;;17.13;9.15;;;16.90;99.90;;;;;;5091421;28;20551;-66
2023/08/20 06:06:00;;;;;;;15.63;8.43;;;17.00;99.90;;;;;;5091958;28;20137;-66
2023/08/20 06:08:26;;;;;;;16.42;8.27;;;17.00;99.90;;;;;;5091906;28;20509;-66
2023/08/20 06:10:52;;;;;;;15.73;8.68;;;17.10;99.90;;;;;;5091894;28;20028;-66
2023/08/20 06:13:18;;;;;;;14.65;8.65;;;17.10;99.90;;;;;;5091137;28;20043;-66
2023/08/20 06:15:43;;;;;;;14.60;8.48;;;17.20;99.90;;;;;;5091503;28;20420;-66
2023/08/20 06:18:09;;;;;;;13.52;8.00;;;17.30;99.90;;;;;;5091391;28;20052;-66
2023/08/20 06:20:34;;;;;;;13.95;7.43;;;17.40;99.90;;;;;;5091199;28;20039;-66
2023/08/20 06:23:00;;;;;;;16.13;7.63;;;17.40;99.90;;;;;;5091339;28;20048;-66
2023/08/20 06:25:26;;;;;;;18.95;7.45;;;17.50;99.90;;;;;;5091498;28;20072;-66
2023/08/20 06:27:51;;;;;;;14.70;7.38;;;17.60;99.90;;;;;;5091641;28;20055;-66
2023/08/20 06:30:17;;;;;;;15.75;8.10;;;17.70;99.90;;;;;;5091198;28;20036;-66
2023/08/20 06:32:44;;;;;;;13.82;7.97;;;17.80;99.90;;;;;;5091503;28;20035;-66
2023/08/20 06:35:10;;;;;;;15.35;6.85;;;18.00;99.90;;;;;;5091372;28;20083;-66
2023/08/20 06:37:38;;;;;;;13.73;7.72;;;18.20;99.90;;;;;;5094662;28;20036;-66
2023/08/20 06:40:04;;;;;;;13.52;7.53;;;18.40;99.90;;;;;;5098403;22;20067;-66
2023/08/20 06:42:30;;;;;;;13.18;7.47;;;18.50;99.90;;;;;;5073996;28;20123;-66
2023/08/20 06:44:55;;;;;;;11.82;6.68;;;18.60;99.90;;;;;;5074315;28;20059;-66
2023/08/20 06:47:21;;;;;;;12.52;7.05;;;18.70;99.90;;;;;;5074761;28;20032;-66
2023/08/20 06:49:46;;;;;;;13.75;7.65;;;18.80;99.90;;;;;;5056901;28;20072;-66
2023/08/20 06:52:12;;;;;;;17.33;7.45;;;18.80;99.90;;;;;;5075013;28;20036;-66
2023/08/20 06:54:37;;;;;;;13.85;6.40;;;18.90;99.90;;;;;;5074559;28;20032;-66
2023/08/20 06:57:03;;;;;;;11.70;6.22;;;18.90;99.90;;;;;;5073986;28;20119;-66
2023/08/20 06:59:29;;;;;;;12.32;6.35;;;19.00;99.90;;;;;;5074714;28;20538;-66
2023/08/20 07:01:55;;;;;;;11.18;6.13;;;19.10;99.90;;;;;;5074415;28;20035;-66
2023/08/20 07:04:20;;;;;;;14.85;6.20;;;19.10;99.90;;;;;;5055859;28;20486;-66
2023/08/20 07:06:46;;;;;;;10.98;5.93;;;19.20;99.90;;;;;;5056304;28;20080;-66
2023/08/20 07:09:11;;;;;;;11.10;5.90;;;19.40;99.90;;;;;;5074537;28;20051;-66
2023/08/20 07:11:37;;;;;;;13.32;5.70;;;19.40;99.90;;;;;;5074506;28;20452;-66
2023/08/20 07:14:03;;;;;;;9.63;5.45;;;19.60;99.90;;;;;;5056358;28;20032;-66
2023/08/20 07:16:28;;;;;;;13.32;5.55;;;19.70;99.90;;;;;;5074311;28;20036;-66
2023/08/20 07:18:54;;;;;;;10.07;5.00;;;19.80;99.90;;;;;;5056404;28;20124;-66
2023/08/20 07:21:20;;;;;;;13.10;5.78;;;19.90;99.90;;;;;;5056440;28;20068;-66
2023/08/20 07:23:45;;;;;;;10.90;5.20;;;20.00;99.90;;;;;;5055965;28;20049;-66
2023/08/20 07:26:12;;;;;;;11.20;4.97;;;20.10;99.90;;;;;;5074199;28;20041;-66
2023/08/20 07:28:56;;;;;;;8.48;4.70;;;20.20;99.90;;;;;;5056482;28;20380;-66
2023/08/20 07:31:22;;;;;;;11.60;4.50;;;20.30;99.90;;;;;;5074174;28;20045;-66
2023/08/20 07:33:49;;;;;;;10.35;4.63;;;20.50;99.90;;;;;;5073341;28;20529;-66
2023/08/20 07:36:16;;;;;;;10.80;4.32;;;20.60;99.90;;;;;;5056340;28;20048;-66
2023/08/20 07:38:43;;;;;;;9.63;4.40;;;20.70;99.90;;;;;;5073909;28;20585;-66
2023/08/20 07:41:12;;;;;;;11.18;3.65;;;20.90;99.90;;;;;;5073764;28;20040;-66
2023/08/20 07:43:38;;;;;;;9.82;3.63;;;21.00;99.90;;;;;;5073434;28;20040;-66
2023/08/20 07:46:05;;;;;;;10.23;3.83;;;21.20;99.90;;;;;;5055972;28;20095;-66
2023/08/20 07:48:30;;;;;;;8.32;3.13;;;21.20;99.90;;;;;;5055584;28;20375;-66
2023/08/20 07:50:56;;;;;;;9.77;3.50;;;21.30;99.90;;;;;;5073808;28;20048;-67
2023/08/20 07:53:22;;;;;;;7.05;3.10;;;21.40;99.90;;;;;;5073476;28;20041;-66
2023/08/20 07:55:47;;;;;;;8.18;2.90;;;21.50;99.90;;;;;;5073482;28;20048;-66
2023/08/20 07:58:13;;;;;;;10.65;2.53;;;21.60;99.90;;;;;;5073335;28;20437;-66
2023/08/20 08:00:39;;;;;;;12.40;3.70;;;21.70;99.90;;;;;;5073292;28;20120;-66
2023/08/20 08:03:04;;;;;;;9.48;2.88;;;21.80;99.90;;;;;;5073360;28;20509;-66
2023/08/20 08:05:30;;;;;;;10.02;3.00;;;21.90;99.90;;;;;;5055345;28;20048;-66
2023/08/20 08:07:56;;;;;;;10.60;3.03;;;22.00;99.90;;;;;;5073499;28;20036;-66
2023/08/20 08:10:21;;;;;;;6.70;2.58;;;22.10;99.90;;;;;;5072830;28;20401;-66
2023/08/20 08:12:47;;;;;;;13.55;2.63;;;22.10;99.90;;;;;;5072727;28;20036;-66
2023/08/20 08:15:13;;;;;;;6.47;2.47;;;22.20;99.90;;;;;;5054994;28;20044;-66
2023/08/20 08:17:39;;;;;;;10.15;3.22;;;22.40;99.90;;;;;;5073342;28;20271;-66
2023/08/20 08:20:05;;;;;;;7.72;3.03;;;22.40;99.90;;;;;;5073237;28;20040;-66
2023/08/20 08:22:31;;;;;;;7.53;2.70;;;22.50;99.90;;;;;;5073178;28;20094;-66
2023/08/20 08:24:57;;;;;;;8.05;2.70;;;22.60;99.90;;;;;;5072708;28;20491;-66
2023/08/20 08:27:22;;;;;;;8.48;3.05;;;22.70;99.90;;;;;;5054451;28;20150;-67
2023/08/20 08:29:48;;;;;;;11.40;2.63;;;22.70;99.90;;;;;;5072900;28;20437;-66
2023/08/20 08:32:13;;;;;;;7.63;1.90;;;22.80;99.90;;;;;;5054968;28;20040;-66
2023/08/20 08:34:39;;;;;;;6.82;2.35;;;22.90;99.90;;;;;;5072224;28;20481;-66
2023/08/20 08:37:05;;;;;;;9.50;2.70;;;23.10;99.90;;;;;;5072783;28;20036;-66
2023/08/20 08:39:30;;;;;;;8.13;2.35;;;23.20;99.90;;;;;;5072322;28;20051;-66
2023/08/20 08:42:07;;;;;;;6.57;2.28;;;23.30;99.90;;;;;;5072609;28;20048;-66
2023/08/20 08:44:33;;;;;;;5.75;1.90;;;23.40;99.90;;;;;;5072506;28;20064;-66
2023/08/20 08:46:59;;;;;;;7.00;2.00;;;23.50;99.90;;;;;;5054701;28;20513;-67
2023/08/20 08:49:25;;;;;;;4.75;1.77;;;23.50;99.90;;;;;;5072484;28;20119;-66
2023/08/20 08:51:53;;;;;;;4.60;1.92;;;23.60;99.90;;;;;;5054980;28;20037;-66
2023/08/20 08:54:20;;;;;;;4.65;2.03;;;23.70;99.90;;;;;;5071935;28;20033;-66
2023/08/20 08:56:45;;;;;;;4.40;1.75;;;23.70;99.90;;;;;;5072626;28;20047;-66
2023/08/20 08:59:11;;;;;;;5.47;1.75;;;23.80;99.90;;;;;;5070654;28;20041;-66
2023/08/20 09:01:41;;;;;;;5.88;1.42;;;23.80;99.90;;;;;;5072449;28;20048;-66
2023/08/20 09:04:06;;;;;;;4.55;1.58;;;24.00;99.90;;;;;;5071795;28;20485;-66
2023/08/20 09:06:46;;;;;;;7.20;1.75;;;24.10;99.90;;;;;;5072185;28;20040;-66
2023/08/20 09:09:12;;;;;;;4.43;1.63;;;24.10;99.90;;;;;;5053683;28;20041;-67
2023/08/20 09:11:38;;;;;;;6.63;1.17;;;24.10;99.90;;;;;;5072181;28;20509;-66
2023/08/20 09:14:04;;;;;;;4.18;1.10;;;24.10;99.90;;;;;;5071542;28;20029;-67
2023/08/20 09:16:31;;;;;;;4.90;1.00;;;24.00;99.90;;;;;;5071795;28;20039;-66
2023/08/20 09:19:00;;;;;;;5.28;1.60;;;24.10;99.90;;;;;;5071695;28;20134;-66
2023/08/20 09:21:29;;;;;;;4.65;1.10;;;24.10;99.90;;;;;;5072045;28;20073;-66
2023/08/20 09:23:57;;;;;;;4.78;1.17;;;24.10;99.90;;;;;;5053778;28;20036;-66
2023/08/20 09:26:22;;;;;;;6.18;1.38;;;24.20;99.90;;;;;;5053578;28;20519;-67
2023/08/20 09:28:48;;;;;;;5.50;1.20;;;24.20;99.90;;;;;;5071720;28;20066;-66
2023/08/20 09:31:15;;;;;;;4.68;0.93;;;24.20;99.90;;;;;;5072358;28;20524;-67
2023/08/20 09:33:51;;;;;;;3.67;1.20;;;24.30;99.90;;;;;;5053460;28;20040;-66
2023/08/20 09:36:17;;;;;;;5.80;0.95;;;24.40;99.90;;;;;;5071573;28;20475;-67
2023/08/20 09:38:43;;;;;;;6.47;1.30;;;24.50;99.90;;;;;;5071741;28;20107;-66
2023/08/20 09:41:09;;;;;;;5.50;1.25;;;24.60;99.90;;;;;;5071761;28;20454;-66
2023/08/20 09:43:38;;;;;;;5.75;1.33;;;24.70;99.90;;;;;;5071545;28;20040;-66
2023/08/20 09:46:05;;;;;;;6.68;1.50;;;24.80;99.90;;;;;;5071659;28;20058;-66
2023/08/20 09:48:37;;;;;;;3.95;1.30;;;24.90;99.90;;;;;;5071700;28;20115;-66
2023/08/20 09:51:11;;;;;;;5.03;1.30;;;24.90;99.90;;;;;;5071755;28;20048;-67
2023/08/20 09:53:49;;;;;;;5.78;1.73;;;25.00;99.90;;;;;;5071612;28;20095;-66
2023/08/20 09:56:38;;;;;;;5.03;1.35;;;25.00;99.90;;;;;;5071736;28;20119;-67
2023/08/20 09:59:04;;;;;;;3.05;0.93;;;25.00;99.90;;;;;;5053885;28;20068;-67
2023/08/20 10:01:30;;;;;;;4.15;1.20;;;25.00;99.90;;;;;;5071925;28;20044;-66
2023/08/20 10:03:56;;;;;;;6.20;1.45;;;25.10;99.90;;;;;;5071557;28;20066;-67
2023/08/20 10:06:23;;;;;;;5.88;1.25;;;25.10;99.90;;;;;;5071135;28;20037;-67
2023/08/20 10:08:51;;;;;;;6.65;1.38;;;25.10;99.90;;;;;;5071589;28;20068;-66
2023/08/20 10:11:17;;;;;;;4.55;1.00;;;25.10;99.90;;;;;;5056345;28;20049;-66
2023/08/20 10:13:43;;;;;;;6.72;1.30;;;25.10;99.90;;;;;;5075158;28;20033;-67
2023/08/20 10:16:11;;;;;;;4.43;1.00;;;25.20;99.90;;;;;;5057802;28;20455;-66
2023/08/20 10:18:37;;;;;;;2.20;1.02;;;25.20;99.90;;;;;;5075538;28;20040;-67
2023/08/20 10:21:04;;;;;;;7.05;1.25;;;25.20;99.90;;;;;;5075398;28;20085;-66
2023/08/20 10:23:31;;;;;;;4.82;1.23;;;25.30;99.90;;;;;;5056929;28;20041;-66
2023/08/20 10:26:10;;;;;;;5.15;1.40;;;25.30;99.90;;;;;;5074588;28;20563;-66
2023/08/20 10:28:36;;;;;;;3.55;0.98;;;25.30;99.90;;;;;;5075537;28;20435;-66
2023/08/20 10:31:11;;;;;;;2.92;1.15;;;25.30;99.90;;;;;;5075351;28;20036;-66
2023/08/20 10:33:47;;;;;;;4.47;0.90;;;25.40;99.90;;;;;;5056615;28;20494;-66
2023/08/20 10:36:22;;;;;;;3.63;1.00;;;25.40;99.90;;;;;;5056779;28;20510;-66
2023/08/20 10:38:49;;;;;;;5.82;1.40;;;25.40;99.90;;;;;;5075199;28;20050;-67
2023/08/20 10:41:18;;;;;;;3.38;1.02;;;25.50;99.90;;;;;;5056561;28;20043;-66
2023/08/20 10:43:48;;;;;;;5.20;1.00;;;25.60;99.90;;;;;;5074874;28;20458;-66
2023/08/20 10:46:19;;;;;;;5.95;1.10;;;25.70;99.90;;;;;;5056462;28;20044;-66
2023/08/20 10:48:55;;;;;;;;;;;25.80;99.90;;;;;;5075381;28;20044;-67
2023/08/20 10:51:28;;;;;;;2.65;0.93;;;25.80;99.90;;;;;;5075003;28;20451;-67
2023/08/20 10:53:59;;;;;;;3.88;1.05;;;25.90;99.90;;;;;;5056618;28;20375;-67
2023/08/20 10:56:38;;;;;;;6.38;1.02;;;25.90;99.90;;;;;;5074551;28;20044;-67
2023/08/20 10:59:18;;;;;;;4.70;1.10;;;25.80;99.90;;;;;;5074777;28;20115;-67
2023/08/20 11:01:49;;;;;;;5.57;1.38;;;25.80;99.90;;;;;;5074689;28;20040;-67
2023/08/20 11:04:22;;;;;;;4.35;0.90;;;25.90;99.90;;;;;;5074637;28;20041;-66
2023/08/20 11:06:54;;;;;;;3.55;0.90;;;25.90;99.90;;;;;;5074630;28;20112;-67
2023/08/20 11:09:22;;;;;;;4.82;1.10;;;25.90;99.90;;;;;;5074479;28;20047;-67
2023/08/20 11:11:48;;;;;;;2.45;0.73;;;25.90;99.90;;;;;;5074465;28;20044;-67
2023/08/20 11:14:15;;;;;;;2.72;0.90;;;26.00;99.90;;;;;;5073894;28;20041;-67
2023/08/20 11:16:41;;;;;;;4.22;1.00;;;26.00;99.90;;;;;;5074305;28;20075;-67
2023/08/20 11:19:10;;;;;;;4.68;1.33;;;26.00;99.90;;;;;;5074364;28;20048;-66
2023/08/20 11:21:40;;;;;;;4.38;0.77;;;26.00;99.90;;;;;;5055594;28;20163;-66
2023/08/20 11:24:06;;;;;;;;;;;26.20;99.90;;;;;;5074484;28;20040;-66
2023/08/20 11:26:34;;;;;;;3.20;0.90;;;26.10;99.90;;;;;;5056033;28;19920;-67
2023/08/20 11:29:00;;;;;;;6.15;0.90;;;26.20;99.90;;;;;;5074341;28;20518;-67
2023/08/20 11:31:26;;;;;;;2.70;1.00;;;26.30;99.90;;;;;;5074184;28;20029;-67
2023/08/20 11:33:51;;;;;;;2.17;0.90;;;26.20;99.90;;;;;;5073971;28;20036;-66
2023/08/20 11:36:20;;;;;;;3.20;1.30;;;26.30;99.90;;;;;;5073651;28;20127;-67
2023/08/20 11:38:53;;;;;;;3.45;0.82;;;26.40;99.90;;;;;;5074053;28;20052;-67
2023/08/20 11:41:20;;;;;;;5.65;1.58;;;26.50;99.90;;;;;;5073795;28;20461;-67
2023/08/20 11:43:49;;;;;;;4.97;1.13;;;26.50;99.90;;;;;;5073841;28;20037;-67
2023/08/20 11:46:18;;;;;;;3.80;1.02;;;26.50;99.90;;;;;;5073704;28;20115;-66
2023/08/20 11:49:06;;;;;;;3.20;1.10;;;26.60;99.90;;;;;;5073896;28;20375;-66
2023/08/20 11:51:46;;;;;;;4.45;1.40;;;26.70;99.90;;;;;;5073665;28;20097;-67
2023/08/20 11:54:14;;;;;;;4.13;1.10;;;26.70;99.90;;;;;;5055922;28;20040;-67
2023/08/20 11:56:45;;;;;;;5.03;1.33;;;26.80;99.90;;;;;;5073781;28;20067;-67
2023/08/20 11:59:11;;;;;;;4.43;1.35;;;26.80;99.90;;;;;;5073639;28;20490;-66
2023/08/20 12:01:37;;;;;;;4.72;1.40;;;26.70;99.90;;;;;;5073595;28;20040;-66
2023/08/20 12:04:08;;;;;;;2.88;0.90;;;26.80;99.90;;;;;;5073053;28;20040;-66
2023/08/20 12:06:35;;;;;;;3.70;1.20;;;26.80;99.90;;;;;;5073535;28;20079;-66
2023/08/20 12:09:19;;;;;;;3.78;0.93;;;26.70;99.90;;;;;;5073559;28;20128;-66
2023/08/20 12:11:50;;;;;;;6.10;1.27;;;26.70;99.90;;;;;;5054959;28;20398;-67
2023/08/20 12:14:17;;;;;;;4.70;1.00;;;26.70;99.90;;;;;;5072953;28;20029;-67
2023/08/20 12:16:42;;;;;;;3.35;0.70;;;26.80;99.90;;;;;;5038284;28;20044;-67
2023/08/20 12:19:09;;;;;;;3.63;0.95;;;26.90;99.90;;;;;;5072430;28;20040;-66
2023/08/20 12:21:35;;;;;;;2.95;0.80;;;26.90;99.90;;;;;;5072962;28;20093;-66
2023/08/20 12:24:00;;;;;;;4.55;0.80;;;27.00;99.90;;;;;;5072896;28;20036;-66
2023/08/20 12:26:26;;;;;;;2.30;0.88;;;26.90;99.90;;;;;;5072906;28;20040;-66
2023/08/20 12:28:51;;;;;;;4.72;0.80;;;26.80;99.90;;;;;;5072846;28;20575;-66
2023/08/20 12:31:17;;;;;;;1.60;0.50;;;26.70;99.90;;;;;;5073075;28;20040;-66
2023/08/20 12:33:43;;;;;;;2.40;0.60;;;26.70;99.90;;;;;;5072776;28;20071;-66
2023/08/20 12:36:08;;;;;;;1.77;0.60;;;26.70;99.90;;;;;;5054795;28;20045;-66
2023/08/20 12:38:34;;;;;;;3.85;0.65;;;26.70;99.90;;;;;;5072967;28;20041;-66
2023/08/20 12:41:01;;;;;;;2.53;0.77;;;26.90;99.70;;;;;;5085174;22;20570;-65
2023/08/20 12:43:27;;;;;;;2.25;0.55;;;27.00;99.90;;;;;;5072077;28;20067;-66
2023/08/20 12:45:52;;;;;;;4.78;0.90;;;27.00;98.70;;;;;;5071978;28;20064;-66